Terminal Aerodrome Forecast
Issued by NWS

Home | Current Version | Previous Version | Text Only | Print | Product List | Glossary On
Versions: 1 2 3 4 5 6 7 8 9 10 11 12 13
000
FTAK31 PAFA 250537
TAFAFA
TAF
PAFA 250537Z 2506/2612 07007KT P6SM SCT050 BKN070
     FM250800 04005KT P6SM VCSH BKN060 BKN100
     FM251400 VRB03KT P6SM BKN050 BKN250
     FM252200 15005KT P6SM VCSH SCT080 BKN250=

USA.gov is the U.S. government's official web portal to all federal, state and local government web resources and services.